sensor_id;sensor_type;location;lat;lon;timestamp;P1;P2;P0
62547;PMS7003;48602;45.192;5.722;2023-07-29T00:00:16;9.25;9.25;8.00
62547;PMS7003;48602;45.192;5.722;2023-07-29T00:02:42;6.00;6.00;5.25
62547;PMS7003;48602;45.192;5.722;2023-07-29T00:05:07;9.50;8.50;8.00
62547;PMS7003;48602;45.192;5.722;2023-07-29T00:07:33;9.00;8.25;7.25
62547;PMS7003;48602;45.192;5.722;2023-07-29T00:09:58;9.75;9.75;8.25
62547;PMS7003;48602;45.192;5.722;2023-07-29T00:12:23;10.00;9.00;7.00
62547;PMS7003;48602;45.192;5.722;2023-07-29T00:14:49;8.25;8.25;7.00
62547;PMS7003;48602;45.192;5.722;2023-07-29T00:17:14;9.25;7.50;7.00
62547;PMS7003;48602;45.192;5.722;2023-07-29T00:19:40;10.50;9.00;7.25
62547;PMS7003;48602;45.192;5.722;2023-07-29T00:22:05;10.00;8.50;7.00
62547;PMS7003;48602;45.192;5.722;2023-07-29T00:24:31;10.50;8.00;7.00
62547;PMS7003;48602;45.192;5.722;2023-07-29T00:26:56;8.25;7.50;6.25
62547;PMS7003;48602;45.192;5.722;2023-07-29T00:29:21;8.50;7.00;6.00
62547;PMS7003;48602;45.192;5.722;2023-07-29T00:31:47;8.25;8.25;7.00
62547;PMS7003;48602;45.192;5.722;2023-07-29T00:34:12;9.25;9.00;6.00
62547;PMS7003;48602;45.192;5.722;2023-07-29T00:36:42;9.00;8.00;7.00
62547;PMS7003;48602;45.192;5.722;2023-07-29T00:39:07;7.75;7.75;6.00
62547;PMS7003;48602;45.192;5.722;2023-07-29T00:41:32;8.25;8.00;6.50
62547;PMS7003;48602;45.192;5.722;2023-07-29T00:43:58;8.00;8.00;6.00
62547;PMS7003;48602;45.192;5.722;2023-07-29T00:46:23;9.00;9.00;7.75
62547;PMS7003;48602;45.192;5.722;2023-07-29T00:48:49;10.50;9.50;8.50
62547;PMS7003;48602;45.192;5.722;2023-07-29T00:51:15;9.50;9.50;7.00
62547;PMS7003;48602;45.192;5.722;2023-07-29T00:53:40;12.00;12.00;9.00
62547;PMS7003;48602;45.192;5.722;2023-07-29T00:56:06;10.50;10.25;8.75
62547;PMS7003;48602;45.192;5.722;2023-07-29T00:58:31;9.00;9.00;7.50
62547;PMS7003;48602;45.192;5.722;2023-07-29T01:00:57;9.00;9.00;8.00
62547;PMS7003;48602;45.192;5.722;2023-07-29T01:03:22;11.00;10.00;9.00
62547;PMS7003;48602;45.192;5.722;2023-07-29T01:08:25;10.00;9.00;8.00
62547;PMS7003;48602;45.192;5.722;2023-07-29T01:10:59;10.40;8.20;7.40
62547;PMS7003;48602;45.192;5.722;2023-07-29T01:16:59;10.00;10.00;8.50
62547;PMS7003;48602;45.192;5.722;2023-07-29T01:22:30;13.40;11.60;9.40
62547;PMS7003;48602;45.192;5.722;2023-07-29T01:24:58;10.40;9.20;7.80
62547;PMS7003;48602;45.192;5.722;2023-07-29T01:27:24;10.75;10.75;8.75
62547;PMS7003;48602;45.192;5.722;2023-07-29T01:29:49;10.25;9.25;8.50
62547;PMS7003;48602;45.192;5.722;2023-07-29T01:32:17;9.00;7.75;7.25
62547;PMS7003;48602;45.192;5.722;2023-07-29T01:37:47;11.00;10.75;8.00
62547;PMS7003;48602;45.192;5.722;2023-07-29T01:40:16;12.60;12.00;10.00
62547;PMS7003;48602;45.192;5.722;2023-07-29T01:42:43;11.40;11.00;8.00
62547;PMS7003;48602;45.192;5.722;2023-07-29T01:45:11;15.40;13.00;10.00
62547;PMS7003;48602;45.192;5.722;2023-07-29T01:47:36;16.25;13.00;10.75
62547;PMS7003;48602;45.192;5.722;2023-07-29T01:50:05;15.60;13.80;10.60
62547;PMS7003;48602;45.192;5.722;2023-07-29T01:52:31;14.00;12.40;10.00
62547;PMS7003;48602;45.192;5.722;2023-07-29T01:54:56;10.50;9.75;8.50
62547;PMS7003;48602;45.192;5.722;2023-07-29T01:57:22;13.25;12.00;10.00
62547;PMS7003;48602;45.192;5.722;2023-07-29T01:59:47;18.50;15.75;12.00
62547;PMS7003;48602;45.192;5.722;2023-07-29T02:02:13;16.50;15.25;11.50
62547;PMS7003;48602;45.192;5.722;2023-07-29T02:04:38;18.75;14.75;11.25
62547;PMS7003;48602;45.192;5.722;2023-07-29T02:07:03;12.25;11.25;8.50
62547;PMS7003;48602;45.192;5.722;2023-07-29T02:09:29;14.75;13.00;10.25
62547;PMS7003;48602;45.192;5.722;2023-07-29T02:11:56;12.80;12.00;8.80
62547;PMS7003;48602;45.192;5.722;2023-07-29T02:14:21;15.00;15.00;11.50
62547;PMS7003;48602;45.192;5.722;2023-07-29T02:16:46;26.25;22.00;16.00
62547;PMS7003;48602;45.192;5.722;2023-07-29T02:19:12;17.50;16.50;12.00
62547;PMS7003;48602;45.192;5.722;2023-07-29T02:21:37;17.50;14.50;12.50
62547;PMS7003;48602;45.192;5.722;2023-07-29T02:24:02;13.00;11.50;10.00
62547;PMS7003;48602;45.192;5.722;2023-07-29T02:26:28;12.25;12.00;10.00
62547;PMS7003;48602;45.192;5.722;2023-07-29T02:28:53;13.25;11.50;9.00
62547;PMS7003;48602;45.192;5.722;2023-07-29T02:31:23;11.25;10.25;7.50
62547;PMS7003;48602;45.192;5.722;2023-07-29T02:33:49;9.40;9.20;8.20
62547;PMS7003;48602;45.192;5.722;2023-07-29T02:36:16;14.00;12.50;10.50
62547;PMS7003;48602;45.192;5.722;2023-07-29T02:38:41;13.50;12.50;11.00
62547;PMS7003;48602;45.192;5.722;2023-07-29T02:41:08;16.75;11.50;9.50
62547;PMS7003;48602;45.192;5.722;2023-07-29T02:43:41;11.20;10.00;8.00
62547;PMS7003;48602;45.192;5.722;2023-07-29T02:46:08;9.40;9.00;8.00
62547;PMS7003;48602;45.192;5.722;2023-07-29T02:48:33;9.50;9.50;7.75
62547;PMS7003;48602;45.192;5.722;2023-07-29T02:50:58;11.00;11.00;9.75
62547;PMS7003;48602;45.192;5.722;2023-07-29T02:53:24;12.25;10.00;8.00
62547;PMS7003;48602;45.192;5.722;2023-07-29T02:55:50;12.00;12.00;9.50
62547;PMS7003;48602;45.192;5.722;2023-07-29T02:58:15;11.50;10.00;7.50
62547;PMS7003;48602;45.192;5.722;2023-07-29T03:00:40;13.50;10.50;9.00
62547;PMS7003;48602;45.192;5.722;2023-07-29T03:03:07;13.60;11.20;9.60
62547;PMS7003;48602;45.192;5.722;2023-07-29T03:05:33;12.00;12.00;10.00
62547;PMS7003;48602;45.192;5.722;2023-07-29T03:07:58;11.50;10.75;10.00
62547;PMS7003;48602;45.192;5.722;2023-07-29T03:10:24;12.25;11.75;9.25
62547;PMS7003;48602;45.192;5.722;2023-07-29T03:12:50;16.25;12.25;10.00
62547;PMS7003;48602;45.192;5.722;2023-07-29T03:15:15;12.00;11.00;9.00
62547;PMS7003;48602;45.192;5.722;2023-07-29T03:17:41;10.00;8.50;7.75
62547;PMS7003;48602;45.192;5.722;2023-07-29T03:20:06;10.75;10.75;9.50
62547;PMS7003;48602;45.192;5.722;2023-07-29T03:22:32;11.50;9.75;8.25
62547;PMS7003;48602;45.192;5.722;2023-07-29T03:24:58;10.50;10.50;8.50
62547;PMS7003;48602;45.192;5.722;2023-07-29T03:27:23;8.75;8.75;7.75
62547;PMS7003;48602;45.192;5.722;2023-07-29T03:29:48;9.00;9.00;7.25
62547;PMS7003;48602;45.192;5.722;2023-07-29T03:32:14;10.75;10.00;7.50
62547;PMS7003;48602;45.192;5.722;2023-07-29T03:34:39;11.00;10.00;9.00
62547;PMS7003;48602;45.192;5.722;2023-07-29T03:37:05;12.25;9.50;8.00
62547;PMS7003;48602;45.192;5.722;2023-07-29T03:39:30;12.50;10.75;9.50
62547;PMS7003;48602;45.192;5.722;2023-07-29T03:41:56;10.00;10.00;7.25
62547;PMS7003;48602;45.192;5.722;2023-07-29T03:44:22;14.25;10.50;8.25
62547;PMS7003;48602;45.192;5.722;2023-07-29T03:46:47;10.75;10.75;8.25
62547;PMS7003;48602;45.192;5.722;2023-07-29T03:49:13;9.75;9.25;8.25
62547;PMS7003;48602;45.192;5.722;2023-07-29T03:51:38;12.50;7.00;7.00
62547;PMS7003;48602;45.192;5.722;2023-07-29T03:54:04;9.25;9.25;8.25
62547;PMS7003;48602;45.192;5.722;2023-07-29T03:56:29;11.00;10.00;8.75
62547;PMS7003;48602;45.192;5.722;2023-07-29T03:59:01;9.25;8.25;7.00
62547;PMS7003;48602;45.192;5.722;2023-07-29T04:01:28;9.00;9.00;7.00
62547;PMS7003;48602;45.192;5.722;2023-07-29T04:03:54;13.25;11.00;9.50
62547;PMS7003;48602;45.192;5.722;2023-07-29T04:06:19;9.25;8.75;7.75
62547;PMS7003;48602;45.192;5.722;2023-07-29T04:08:45;12.00;12.00;10.00
62547;PMS7003;48602;45.192;5.722;2023-07-29T04:11:11;10.75;10.75;8.25
62547;PMS7003;48602;45.192;5.722;2023-07-29T04:13:36;11.25;11.00;8.50
62547;PMS7003;48602;45.192;5.722;2023-07-29T04:16:03;10.40;8.80;7.60
62547;PMS7003;48602;45.192;5.722;2023-07-29T04:18:29;14.00;11.60;9.40
62547;PMS7003;48602;45.192;5.722;2023-07-29T04:20:54;10.00;9.25;8.00
62547;PMS7003;48602;45.192;5.722;2023-07-29T04:23:19;12.00;12.00;9.25
62547;PMS7003;48602;45.192;5.722;2023-07-29T04:25:45;11.25;10.75;9.25
62547;PMS7003;48602;45.192;5.722;2023-07-29T04:28:10;26.00;26.00;20.00
62547;PMS7003;48602;45.192;5.722;2023-07-29T04:30:36;15.75;15.75;14.00
62547;PMS7003;48602;45.192;5.722;2023-07-29T04:33:01;12.25;12.25;9.50
62547;PMS7003;48602;45.192;5.722;2023-07-29T04:35:26;13.00;11.25;9.50
62547;PMS7003;48602;45.192;5.722;2023-07-29T04:37:52;12.00;12.00;10.00
62547;PMS7003;48602;45.192;5.722;2023-07-29T04:40:17;12.00;11.25;9.50
62547;PMS7003;48602;45.192;5.722;2023-07-29T04:42:42;14.00;13.50;11.50
62547;PMS7003;48602;45.192;5.722;2023-07-29T04:45:08;14.00;14.00;11.00
62547;PMS7003;48602;45.192;5.722;2023-07-29T04:47:33;17.50;16.75;14.50
62547;PMS7003;48602;45.192;5.722;2023-07-29T04:49:59;13.25;13.25;12.00
62547;PMS7003;48602;45.192;5.722;2023-07-29T04:52:24;16.75;15.50;13.00
62547;PMS7003;48602;45.192;5.722;2023-07-29T04:54:50;18.75;16.75;13.25
62547;PMS7003;48602;45.192;5.722;2023-07-29T04:57:16;14.80;14.80;10.80
62547;PMS7003;48602;45.192;5.722;2023-07-29T04:59:41;9.25;9.25;8.00
62547;PMS7003;48602;45.192;5.722;2023-07-29T05:02:06;12.75;10.25;8.75
62547;PMS7003;48602;45.192;5.722;2023-07-29T05:04:32;10.25;9.25;8.50
62547;PMS7003;48602;45.192;5.722;2023-07-29T05:06:57;14.00;13.00;10.75
62547;PMS7003;48602;45.192;5.722;2023-07-29T05:09:23;11.00;11.00;9.25
62547;PMS7003;48602;45.192;5.722;2023-07-29T05:11:48;11.50;10.00;8.75
62547;PMS7003;48602;45.192;5.722;2023-07-29T05:14:14;0.00;0.00;0.00
62547;PMS7003;48602;45.192;5.722;2023-07-29T05:16:40;16.80;13.80;12.00
62547;PMS7003;48602;45.192;5.722;2023-07-29T05:19:06;12.25;12.25;10.50
62547;PMS7003;48602;45.192;5.722;2023-07-29T05:21:32;16.00;13.75;11.75
62547;PMS7003;48602;45.192;5.722;2023-07-29T05:23:57;18.75;18.25;13.50
62547;PMS7003;48602;45.192;5.722;2023-07-29T05:26:23;16.75;15.25;13.00
62547;PMS7003;48602;45.192;5.722;2023-07-29T05:28:48;16.00;16.00;13.00
62547;PMS7003;48602;45.192;5.722;2023-07-29T05:31:14;14.00;11.75;10.25
62547;PMS7003;48602;45.192;5.722;2023-07-29T05:33:39;16.75;14.25;11.25
62547;PMS7003;48602;45.192;5.722;2023-07-29T05:36:05;12.00;11.25;9.50
62547;PMS7003;48602;45.192;5.722;2023-07-29T05:38:30;14.75;13.50;11.25
62547;PMS7003;48602;45.192;5.722;2023-07-29T05:40:56;15.50;14.75;13.00
62547;PMS7003;48602;45.192;5.722;2023-07-29T05:43:24;13.75;13.00;11.75
62547;PMS7003;48602;45.192;5.722;2023-07-29T05:45:49;14.20;13.20;9.40
62547;PMS7003;48602;45.192;5.722;2023-07-29T05:48:16;15.00;15.00;12.60
62547;PMS7003;48602;45.192;5.722;2023-07-29T05:50:41;14.50;13.75;10.25
62547;PMS7003;48602;45.192;5.722;2023-07-29T05:53:06;14.50;14.50;11.00
62547;PMS7003;48602;45.192;5.722;2023-07-29T05:55:32;11.00;11.00;8.50
62547;PMS7003;48602;45.192;5.722;2023-07-29T05:57:57;12.75;12.25;10.50
62547;PMS7003;48602;45.192;5.722;2023-07-29T06:00:23;14.25;12.75;11.25
62547;PMS7003;48602;45.192;5.722;2023-07-29T06:02:48;12.50;12.00;10.00
62547;PMS7003;48602;45.192;5.722;2023-07-29T06:05:13;9.75;9.75;8.25
62547;PMS7003;48602;45.192;5.722;2023-07-29T06:07:39;11.75;11.75;10.25
62547;PMS7003;48602;45.192;5.722;2023-07-29T06:10:09;10.80;10.80;9.20
62547;PMS7003;48602;45.192;5.722;2023-07-29T06:12:36;15.60;14.00;10.20
62547;PMS7003;48602;45.192;5.722;2023-07-29T06:15:02;11.75;11.25;8.25
62547;PMS7003;48602;45.192;5.722;2023-07-29T06:17:28;7.00;6.00;6.00
62547;PMS7003;48602;45.192;5.722;2023-07-29T06:19:53;14.25;11.25;10.75
62547;PMS7003;48602;45.192;5.722;2023-07-29T06:22:18;15.00;15.00;12.00
62547;PMS7003;48602;45.192;5.722;2023-07-29T06:24:44;15.25;13.75;10.00
62547;PMS7003;48602;45.192;5.722;2023-07-29T06:27:09;16.00;15.00;10.75
62547;PMS7003;48602;45.192;5.722;2023-07-29T06:29:34;13.25;12.50;10.50
62547;PMS7003;48602;45.192;5.722;2023-07-29T06:32:00;16.00;13.00;10.00
62547;PMS7003;48602;45.192;5.722;2023-07-29T06:34:25;15.00;14.25;10.50
62547;PMS7003;48602;45.192;5.722;2023-07-29T06:36:51;14.00;12.00;9.25
62547;PMS7003;48602;45.192;5.722;2023-07-29T06:39:16;12.25;12.25;10.75
62547;PMS7003;48602;45.192;5.722;2023-07-29T06:41:41;16.25;15.00;12.00
62547;PMS7003;48602;45.192;5.722;2023-07-29T06:44:07;14.25;14.25;12.25
62547;PMS7003;48602;45.192;5.722;2023-07-29T06:46:32;15.00;15.00;12.00
62547;PMS7003;48602;45.192;5.722;2023-07-29T06:48:57;13.75;13.75;10.25
62547;PMS7003;48602;45.192;5.722;2023-07-29T06:51:23;14.75;13.75;10.00
62547;PMS7003;48602;45.192;5.722;2023-07-29T06:53:48;16.75;14.50;11.25
62547;PMS7003;48602;45.192;5.722;2023-07-29T06:56:13;11.75;10.75;9.00
62547;PMS7003;48602;45.192;5.722;2023-07-29T06:58:39;16.00;12.00;10.00
62547;PMS7003;48602;45.192;5.722;2023-07-29T07:01:04;13.75;11.75;10.00
62547;PMS7003;48602;45.192;5.722;2023-07-29T07:03:30;13.00;13.00;11.00
62547;PMS7003;48602;45.192;5.722;2023-07-29T07:05:55;13.00;12.75;10.75
62547;PMS7003;48602;45.192;5.722;2023-07-29T07:08:20;10.50;10.50;8.00
62547;PMS7003;48602;45.192;5.722;2023-07-29T07:10:49;11.00;10.75;10.00
62547;PMS7003;48602;45.192;5.722;2023-07-29T07:13:14;12.80;12.60;10.60
62547;PMS7003;48602;45.192;5.722;2023-07-29T07:15:40;17.50;15.75;12.25
62547;PMS7003;48602;45.192;5.722;2023-07-29T07:18:05;13.50;13.50;11.00
62547;PMS7003;48602;45.192;5.722;2023-07-29T07:20:30;14.00;12.25;9.50
62547;PMS7003;48602;45.192;5.722;2023-07-29T07:22:56;11.50;11.00;9.50
62547;PMS7003;48602;45.192;5.722;2023-07-29T07:25:21;12.00;12.00;10.00
62547;PMS7003;48602;45.192;5.722;2023-07-29T07:27:47;14.75;14.00;11.00
62547;PMS7003;48602;45.192;5.722;2023-07-29T07:30:13;15.00;13.20;11.80
62547;PMS7003;48602;45.192;5.722;2023-07-29T07:32:39;15.25;15.00;12.00
62547;PMS7003;48602;45.192;5.722;2023-07-29T07:35:04;11.50;11.50;9.50
62547;PMS7003;48602;45.192;5.722;2023-07-29T07:37:30;13.75;12.00;9.25
62547;PMS7003;48602;45.192;5.722;2023-07-29T07:39:55;14.75;14.25;11.50
62547;PMS7003;48602;45.192;5.722;2023-07-29T07:42:20;17.50;13.75;11.25
62547;PMS7003;48602;45.192;5.722;2023-07-29T07:44:46;13.00;13.00;11.00
62547;PMS7003;48602;45.192;5.722;2023-07-29T07:47:11;10.75;10.75;10.50
62547;PMS7003;48602;45.192;5.722;2023-07-29T07:49:37;12.50;12.50;11.00
62547;PMS7003;48602;45.192;5.722;2023-07-29T07:52:02;13.50;12.75;11.00
62547;PMS7003;48602;45.192;5.722;2023-07-29T07:54:27;12.25;12.25;9.00
62547;PMS7003;48602;45.192;5.722;2023-07-29T07:56:53;10.50;9.75;7.50
62547;PMS7003;48602;45.192;5.722;2023-07-29T07:59:18;13.75;11.25;10.00
62547;PMS7003;48602;45.192;5.722;2023-07-29T08:01:43;12.50;11.75;9.75
62547;PMS7003;48602;45.192;5.722;2023-07-29T08:04:09;13.75;13.50;11.25
62547;PMS7003;48602;45.192;5.722;2023-07-29T08:06:34;15.00;13.75;11.00
62547;PMS7003;48602;45.192;5.722;2023-07-29T08:09:00;14.00;10.25;8.25
62547;PMS7003;48602;45.192;5.722;2023-07-29T08:11:26;10.50;10.25;9.00
62547;PMS7003;48602;45.192;5.722;2023-07-29T08:13:51;11.00;10.50;9.25
62547;PMS7003;48602;45.192;5.722;2023-07-29T08:16:17;13.75;12.75;10.00
62547;PMS7003;48602;45.192;5.722;2023-07-29T08:18:42;7.25;6.25;4.00
62547;PMS7003;48602;45.192;5.722;2023-07-29T08:21:08;12.60;12.20;10.00
62547;PMS7003;48602;45.192;5.722;2023-07-29T08:23:34;13.50;12.50;10.25
62547;PMS7003;48602;45.192;5.722;2023-07-29T08:26:02;13.25;11.75;10.75
62547;PMS7003;48602;45.192;5.722;2023-07-29T08:28:33;11.80;11.60;10.00
62547;PMS7003;48602;45.192;5.722;2023-07-29T08:31:01;14.80;10.60;9.20
62547;PMS7003;48602;45.192;5.722;2023-07-29T08:33:27;12.25;11.25;10.00
62547;PMS7003;48602;45.192;5.722;2023-07-29T08:35:53;11.00;11.00;10.00
62547;PMS7003;48602;45.192;5.722;2023-07-29T08:38:18;11.50;11.50;9.00
62547;PMS7003;48602;45.192;5.722;2023-07-29T08:40:45;12.60;12.60;9.80
62547;PMS7003;48602;45.192;5.722;2023-07-29T08:43:24;15.60;14.80;12.80
62547;PMS7003;48602;45.192;5.722;2023-07-29T08:45:55;17.50;14.50;12.50
62547;PMS7003;48602;45.192;5.722;2023-07-29T08:48:27;16.00;15.00;12.20
62547;PMS7003;48602;45.192;5.722;2023-07-29T08:50:57;17.20;16.00;12.20
62547;PMS7003;48602;45.192;5.722;2023-07-29T08:53:26;13.00;13.00;11.40
62547;PMS7003;48602;45.192;5.722;2023-07-29T08:55:53;14.75;14.25;12.25
62547;PMS7003;48602;45.192;5.722;2023-07-29T08:58:20;13.00;12.20;12.20
62547;PMS7003;48602;45.192;5.722;2023-07-29T09:00:46;15.60;14.40;12.20
62547;PMS7003;48602;45.192;5.722;2023-07-29T09:03:13;13.80;12.80;10.80
62547;PMS7003;48602;45.192;5.722;2023-07-29T09:05:39;15.00;14.50;12.50
62547;PMS7003;48602;45.192;5.722;2023-07-29T09:08:04;15.50;13.75;11.75
62547;PMS7003;48602;45.192;5.722;2023-07-29T09:10:30;11.75;11.75;9.75
62547;PMS7003;48602;45.192;5.722;2023-07-29T09:13:00;12.80;12.80;11.00
62547;PMS7003;48602;45.192;5.722;2023-07-29T09:15:31;17.40;14.00;11.00
62547;PMS7003;48602;45.192;5.722;2023-07-29T09:17:58;15.20;13.60;11.80
62547;PMS7003;48602;45.192;5.722;2023-07-29T09:20:26;18.50;16.75;14.50
62547;PMS7003;48602;45.192;5.722;2023-07-29T09:22:53;16.60;15.80;12.60
62547;PMS7003;48602;45.192;5.722;2023-07-29T09:25:26;16.00;16.00;13.75
62547;PMS7003;48602;45.192;5.722;2023-07-29T09:27:53;17.40;15.80;13.00
62547;PMS7003;48602;45.192;5.722;2023-07-29T09:30:24;17.00;14.20;12.00
62547;PMS7003;48602;45.192;5.722;2023-07-29T09:32:56;16.00;15.25;13.25
62547;PMS7003;48602;45.192;5.722;2023-07-29T09:35:22;14.00;11.50;9.50
62547;PMS7003;48602;45.192;5.722;2023-07-29T09:37:48;13.75;13.75;12.00
62547;PMS7003;48602;45.192;5.722;2023-07-29T09:40:14;15.60;15.60;12.80
62547;PMS7003;48602;45.192;5.722;2023-07-29T09:42:47;15.40;13.60;11.20
62547;PMS7003;48602;45.192;5.722;2023-07-29T09:45:18;18.50;16.50;14.25
62547;PMS7003;48602;45.192;5.722;2023-07-29T09:47:46;20.20;19.20;14.20
62547;PMS7003;48602;45.192;5.722;2023-07-29T09:50:11;18.20;14.80;12.60
62547;PMS7003;48602;45.192;5.722;2023-07-29T09:52:37;17.00;16.25;14.75
62547;PMS7003;48602;45.192;5.722;2023-07-29T09:55:02;15.25;13.00;11.25
62547;PMS7003;48602;45.192;5.722;2023-07-29T09:57:28;19.00;15.00;13.00
62547;PMS7003;48602;45.192;5.722;2023-07-29T09:59:55;15.60;15.60;13.20
62547;PMS7003;48602;45.192;5.722;2023-07-29T10:02:21;12.40;12.40;10.80
62547;PMS7003;48602;45.192;5.722;2023-07-29T10:04:47;13.60;13.60;11.60
62547;PMS7003;48602;45.192;5.722;2023-07-29T10:07:13;10.00;9.20;8.40
62547;PMS7003;48602;45.192;5.722;2023-07-29T10:09:40;10.00;9.20;8.20
62547;PMS7003;48602;45.192;5.722;2023-07-29T10:12:07;9.60;7.80;6.80
62547;PMS7003;48602;45.192;5.722;2023-07-29T10:14:34;10.80;10.80;9.40
62547;PMS7003;48602;45.192;5.722;2023-07-29T10:17:01;11.20;10.00;8.20
62547;PMS7003;48602;45.192;5.722;2023-07-29T10:19:28;9.20;9.20;8.40
62547;PMS7003;48602;45.192;5.722;2023-07-29T10:21:55;9.20;9.20;8.40
62547;PMS7003;48602;45.192;5.722;2023-07-29T10:24:24;9.20;8.60;7.00
62547;PMS7003;48602;45.192;5.722;2023-07-29T10:26:57;8.80;7.00;6.00
62547;PMS7003;48602;45.192;5.722;2023-07-29T10:29:24;5.80;4.40;3.80
62547;PMS7003;48602;45.192;5.722;2023-07-29T10:31:53;7.60;6.40;6.00
62547;PMS7003;48602;45.192;5.722;2023-07-29T10:34:22;6.40;6.40;5.20
62547;PMS7003;48602;45.192;5.722;2023-07-29T10:36:48;11.60;9.00;7.20
62547;PMS7003;48602;45.192;5.722;2023-07-29T10:39:15;7.60;7.60;7.40
62547;PMS7003;48602;45.192;5.722;2023-07-29T10:41:56;7.00;7.00;6.00
62547;PMS7003;48602;45.192;5.722;2023-07-29T10:47:13;7.40;7.40;5.80
62547;PMS7003;48602;45.192;5.722;2023-07-29T10:49:40;7.80;7.80;6.60
62547;PMS7003;48602;45.192;5.722;2023-07-29T10:52:06;6.40;6.00;5.40
62547;PMS7003;48602;45.192;5.722;2023-07-29T10:54:41;3.75;3.75;3.00
62547;PMS7003;48602;45.192;5.722;2023-07-29T10:57:14;9.20;7.40;6.40
62547;PMS7003;48602;45.192;5.722;2023-07-29T10:59:41;6.80;6.20;5.40
62547;PMS7003;48602;45.192;5.722;2023-07-29T11:02:17;4.80;4.80;4.60
62547;PMS7003;48602;45.192;5.722;2023-07-29T11:04:48;7.00;5.20;5.00
62547;PMS7003;48602;45.192;5.722;2023-07-29T11:09:41;4.50;4.25;3.50
62547;PMS7003;48602;45.192;5.722;2023-07-29T11:17:37;8.50;7.25;6.50
62547;PMS7003;48602;45.192;5.722;2023-07-29T11:20:04;8.40;7.00;5.80
62547;PMS7003;48602;45.192;5.722;2023-07-29T11:22:33;10.40;9.20;8.00
62547;PMS7003;48602;45.192;5.722;2023-07-29T11:24:58;5.75;5.75;4.00
62547;PMS7003;48602;45.192;5.722;2023-07-29T11:27:24;6.00;5.75;5.00
62547;PMS7003;48602;45.192;5.722;2023-07-29T11:29:49;8.00;8.00;6.00
62547;PMS7003;48602;45.192;5.722;2023-07-29T11:32:15;5.75;5.25;4.00
62547;PMS7003;48602;45.192;5.722;2023-07-29T11:34:41;7.00;7.00;5.60
62547;PMS7003;48602;45.192;5.722;2023-07-29T11:37:11;7.25;6.00;4.50
62547;PMS7003;48602;45.192;5.722;2023-07-29T11:39:43;6.80;6.80;6.00
62547;PMS7003;48602;45.192;5.722;2023-07-29T11:42:19;6.40;6.40;5.60
62547;PMS7003;48602;45.192;5.722;2023-07-29T11:44:45;9.00;8.00;6.80
62547;PMS7003;48602;45.192;5.722;2023-07-29T11:47:11;9.00;8.00;7.00
62547;PMS7003;48602;45.192;5.722;2023-07-29T11:49:40;7.00;6.20;4.20
62547;PMS7003;48602;45.192;5.722;2023-07-29T11:52:07;6.00;6.00;5.40
62547;PMS7003;48602;45.192;5.722;2023-07-29T11:54:37;8.60;8.60;7.40
62547;PMS7003;48602;45.192;5.722;2023-07-29T11:57:04;1.40;1.40;1.20
62547;PMS7003;48602;45.192;5.722;2023-07-29T11:59:32;4.20;4.20;2.80
62547;PMS7003;48602;45.192;5.722;2023-07-29T12:02:00;11.20;9.00;8.00
62547;PMS7003;48602;45.192;5.722;2023-07-29T12:04:28;10.50;10.50;8.75
62547;PMS7003;48602;45.192;5.722;2023-07-29T12:06:54;11.80;11.80;9.80
62547;PMS7003;48602;45.192;5.722;2023-07-29T12:09:20;11.40;11.40;9.80
62547;PMS7003;48602;45.192;5.722;2023-07-29T12:11:46;15.25;13.50;10.75
62547;PMS7003;48602;45.192;5.722;2023-07-29T12:14:12;11.25;11.25;10.00
62547;PMS7003;48602;45.192;5.722;2023-07-29T12:16:40;12.25;10.75;9.00
62547;PMS7003;48602;45.192;5.722;2023-07-29T12:19:07;12.80;12.60;10.20
62547;PMS7003;48602;45.192;5.722;2023-07-29T12:21:32;13.50;11.50;9.50
62547;PMS7003;48602;45.192;5.722;2023-07-29T12:23:58;10.25;9.50;7.75
62547;PMS7003;48602;45.192;5.722;2023-07-29T12:26:27;13.25;11.75;9.75
62547;PMS7003;48602;45.192;5.722;2023-07-29T12:28:53;11.00;10.20;9.40
62547;PMS7003;48602;45.192;5.722;2023-07-29T12:31:18;9.25;9.25;6.75
62547;PMS7003;48602;45.192;5.722;2023-07-29T12:33:43;12.25;10.75;9.25
62547;PMS7003;48602;45.192;5.722;2023-07-29T12:36:09;13.25;12.25;9.50
62547;PMS7003;48602;45.192;5.722;2023-07-29T12:38:35;12.60;10.20;9.20
62547;PMS7003;48602;45.192;5.722;2023-07-29T12:41:01;10.00;10.00;8.75
62547;PMS7003;48602;45.192;5.722;2023-07-29T12:43:26;9.75;9.00;7.25
62547;PMS7003;48602;45.192;5.722;2023-07-29T12:45:52;11.75;10.25;8.75
62547;PMS7003;48602;45.192;5.722;2023-07-29T12:48:17;9.25;7.25;6.00
62547;PMS7003;48602;45.192;5.722;2023-07-29T12:50:43;10.00;10.00;9.00
62547;PMS7003;48602;45.192;5.722;2023-07-29T12:53:08;8.25;8.25;7.50
62547;PMS7003;48602;45.192;5.722;2023-07-29T12:55:37;8.20;8.20;7.00
62547;PMS7003;48602;45.192;5.722;2023-07-29T12:58:07;10.40;9.60;8.60
62547;PMS7003;48602;45.192;5.722;2023-07-29T13:00:32;11.25;11.25;9.75
62547;PMS7003;48602;45.192;5.722;2023-07-29T13:02:58;9.75;9.75;9.25
62547;PMS7003;48602;45.192;5.722;2023-07-29T13:05:23;10.25;10.00;9.50
62547;PMS7003;48602;45.192;5.722;2023-07-29T13:07:48;13.25;10.75;9.00
62547;PMS7003;48602;45.192;5.722;2023-07-29T13:10:14;11.00;8.25;8.00
62547;PMS7003;48602;45.192;5.722;2023-07-29T13:12:39;10.00;9.50;8.50
62547;PMS7003;48602;45.192;5.722;2023-07-29T13:15:05;6.75;6.75;6.25
62547;PMS7003;48602;45.192;5.722;2023-07-29T13:17:31;9.00;9.00;7.80
62547;PMS7003;48602;45.192;5.722;2023-07-29T13:19:57;10.40;10.40;9.40
62547;PMS7003;48602;45.192;5.722;2023-07-29T13:22:23;8.25;7.00;6.25
62547;PMS7003;48602;45.192;5.722;2023-07-29T13:24:48;9.25;9.25;8.00
62547;PMS7003;48602;45.192;5.722;2023-07-29T13:27:14;7.75;7.75;6.75
62547;PMS7003;48602;45.192;5.722;2023-07-29T13:29:39;9.00;8.50;7.25
62547;PMS7003;48602;45.192;5.722;2023-07-29T13:32:05;12.25;11.50;8.75
62547;PMS7003;48602;45.192;5.722;2023-07-29T13:34:31;9.00;9.00;7.60
62547;PMS7003;48602;45.192;5.722;2023-07-29T13:36:56;8.50;8.50;8.00
62547;PMS7003;48602;45.192;5.722;2023-07-29T13:39:22;9.50;8.50;7.75
62547;PMS7003;48602;45.192;5.722;2023-07-29T13:41:47;9.00;9.00;7.50
62547;PMS7003;48602;45.192;5.722;2023-07-29T13:44:12;10.25;9.00;6.75
62547;PMS7003;48602;45.192;5.722;2023-07-29T13:46:38;10.75;9.75;8.50
62547;PMS7003;48602;45.192;5.722;2023-07-29T13:49:03;11.25;11.25;9.00
62547;PMS7003;48602;45.192;5.722;2023-07-29T13:51:28;10.00;9.50;8.25
62547;PMS7003;48602;45.192;5.722;2023-07-29T13:53:54;12.50;11.00;9.25
62547;PMS7003;48602;45.192;5.722;2023-07-29T13:56:21;9.60;9.60;9.00
62547;PMS7003;48602;45.192;5.722;2023-07-29T13:58:46;13.00;10.00;8.25
62547;PMS7003;48602;45.192;5.722;2023-07-29T14:01:11;10.00;8.00;7.00
62547;PMS7003;48602;45.192;5.722;2023-07-29T14:03:37;8.75;8.25;6.75
62547;PMS7003;48602;45.192;5.722;2023-07-29T14:06:02;9.50;8.25;7.75
62547;PMS7003;48602;45.192;5.722;2023-07-29T14:08:28;6.00;6.00;6.00
62547;PMS7003;48602;45.192;5.722;2023-07-29T14:10:53;8.50;8.50;7.25
62547;PMS7003;48602;45.192;5.722;2023-07-29T14:13:18;8.75;7.75;6.50
62547;PMS7003;48602;45.192;5.722;2023-07-29T14:15:44;8.50;8.00;6.25
62547;PMS7003;48602;45.192;5.722;2023-07-29T14:18:09;8.50;8.00;6.00